createdAt,value
2023-04-21T00:01:52.738Z,12.13
2023-04-21T00:04:22.248Z,12.11
2023-04-21T00:06:52.720Z,12.12
2023-04-21T00:09:22.122Z,12.15
2023-04-21T00:11:52.812Z,12.18
2023-04-21T00:14:22.262Z,12.19
2023-04-21T00:16:52.854Z,12.20
2023-04-21T00:19:23.384Z,12.23
2023-04-21T00:21:58.048Z,12.29
2023-04-21T00:24:27.570Z,12.34
2023-04-21T00:26:56.802Z,12.41
2023-04-21T00:29:25.945Z,12.46
2023-04-21T00:31:55.292Z,12.50
2023-04-21T00:34:24.668Z,12.57
2023-04-21T00:36:53.955Z,12.65
2023-04-21T00:39:23.613Z,12.71
2023-04-21T00:41:53.986Z,12.75
2023-04-21T00:44:23.602Z,12.77
2023-04-21T00:46:53.111Z,12.79
2023-04-21T00:49:25.576Z,12.81
2023-04-21T00:51:55.766Z,12.77
2023-04-21T00:54:25.818Z,12.73
2023-04-21T00:56:57.903Z,12.73
2023-04-21T00:59:27.225Z,12.75
2023-04-21T01:01:56.648Z,12.76
2023-04-21T01:04:26.779Z,12.80
2023-04-21T01:06:56.213Z,12.87
2023-04-21T01:09:26.512Z,12.92
2023-04-21T01:12:06.640Z,12.93
2023-04-21T01:14:36.612Z,12.92
2023-04-21T01:17:07.243Z,12.88
2023-04-21T01:19:39.490Z,12.84
2023-04-21T01:22:11.244Z,12.82
2023-04-21T01:24:41.599Z,12.81
2023-04-21T01:27:12.054Z,12.77
2023-04-21T01:29:42.931Z,12.66
2023-04-21T01:32:15.283Z,12.61
2023-04-21T01:34:45.239Z,12.66
2023-04-21T01:37:16.761Z,12.70
2023-04-21T01:39:52.764Z,12.70
2023-04-21T01:42:24.725Z,12.67
2023-04-21T01:44:55.899Z,12.57
2023-04-21T01:47:27.285Z,12.43
2023-04-21T01:49:56.645Z,12.32
2023-04-21T01:52:27.266Z,12.25
2023-04-21T01:54:56.669Z,12.22
2023-04-21T01:57:26.334Z,12.22
2023-04-21T01:59:57.064Z,12.26
2023-04-21T02:02:26.947Z,12.31
2023-04-21T02:04:57.111Z,12.30
2023-04-21T02:07:27.982Z,12.29
2023-04-21T02:09:57.335Z,12.26
2023-04-21T02:12:28.013Z,12.27
2023-04-21T02:14:57.276Z,12.22
2023-04-21T02:17:27.255Z,12.15
2023-04-21T02:19:57.414Z,12.09
2023-04-21T02:22:27.674Z,12.04
2023-04-21T02:24:57.580Z,11.95
2023-04-21T02:27:27.702Z,11.93
2023-04-21T02:29:58.138Z,11.91
2023-04-21T02:32:28.942Z,11.90
2023-04-21T02:34:58.241Z,11.88
2023-04-21T02:37:28.917Z,11.86
2023-04-21T02:39:58.243Z,11.85
2023-04-21T02:42:28.183Z,11.82
2023-04-21T02:44:58.452Z,11.79
2023-04-21T02:47:28.574Z,11.80
2023-04-21T02:49:58.799Z,11.83
2023-04-21T02:52:28.909Z,11.81
2023-04-21T02:54:59.123Z,11.75
2023-04-21T02:57:31.353Z,11.66
2023-04-21T03:00:00.753Z,11.58
2023-04-21T03:02:30.868Z,11.54
2023-04-21T03:05:00.266Z,11.54
2023-04-21T03:07:29.826Z,11.55
2023-04-21T03:09:59.787Z,11.56
2023-04-21T03:12:30.140Z,11.55
2023-04-21T03:15:00.116Z,11.54
2023-04-21T03:17:32.925Z,11.56
2023-04-21T03:20:06.372Z,11.59
2023-04-21T03:22:35.779Z,11.64
2023-04-21T03:25:06.881Z,11.62
2023-04-21T03:27:36.521Z,11.54
2023-04-21T03:30:13.141Z,11.47
2023-04-21T03:32:43.160Z,11.38
2023-04-21T03:35:14.973Z,11.36
2023-04-21T03:37:44.496Z,11.38
2023-04-21T03:40:13.678Z,11.42
2023-04-21T03:42:43.030Z,11.46
2023-04-21T03:45:13.077Z,11.48
2023-04-21T03:47:42.539Z,11.46
2023-04-21T03:50:11.956Z,11.48
2023-04-21T03:52:41.569Z,11.50
2023-04-21T03:55:11.137Z,11.53
2023-04-21T03:57:41.199Z,11.51
2023-04-21T04:00:13.068Z,11.50
2023-04-21T04:02:43.547Z,11.60
2023-04-21T04:05:12.989Z,11.90
2023-04-21T04:07:42.445Z,12.29
2023-04-21T04:10:11.799Z,12.60
2023-04-21T04:12:40.946Z,12.70
2023-04-21T04:15:13.867Z,12.79
2023-04-21T04:17:43.269Z,12.98
2023-04-21T04:20:12.609Z,13.14
2023-04-21T04:22:41.842Z,13.23
2023-04-21T04:25:12.408Z,13.29
2023-04-21T04:27:41.559Z,13.38
2023-04-21T04:30:12.032Z,13.46
2023-04-21T04:32:41.550Z,13.57
2023-04-21T04:35:13.147Z,13.64
2023-04-21T04:37:42.372Z,13.68
2023-04-21T04:40:12.918Z,13.66
2023-04-21T04:42:42.491Z,13.52
2023-04-21T04:45:13.406Z,13.37
2023-04-21T04:47:42.993Z,13.26
2023-04-21T04:50:12.569Z,13.24
2023-04-21T04:52:41.890Z,13.18
2023-04-21T04:55:11.177Z,13.11
2023-04-21T04:57:40.532Z,13.01
2023-04-21T05:00:14.026Z,12.88
2023-04-21T05:02:43.828Z,12.76
2023-04-21T05:05:13.413Z,12.72
2023-04-21T05:07:42.864Z,12.73
2023-04-21T05:10:12.577Z,12.75
2023-04-21T05:12:41.796Z,12.75
2023-04-21T05:15:12.002Z,12.74
2023-04-21T05:17:41.522Z,12.74
2023-04-21T05:20:13.458Z,12.74
2023-04-21T05:23:17.391Z,12.77
2023-04-21T05:25:47.055Z,12.83
2023-04-21T05:28:16.837Z,12.91
2023-04-21T05:30:46.093Z,13.00
2023-04-21T05:33:18.015Z,13.06
2023-04-21T05:35:47.360Z,13.10
2023-04-21T05:38:17.690Z,13.13
2023-04-21T05:40:55.067Z,13.17
2023-04-21T05:43:24.682Z,13.20
2023-04-21T05:45:54.244Z,13.22
2023-04-21T05:48:23.992Z,13.24
2023-04-21T05:50:53.831Z,13.23
2023-04-21T05:53:23.948Z,13.21
2023-04-21T05:55:57.671Z,13.28
2023-04-21T05:58:28.134Z,13.41
2023-04-21T06:01:00.400Z,13.47
2023-04-21T06:03:31.957Z,13.49
2023-04-21T06:06:02.886Z,13.57
2023-04-21T06:08:35.502Z,13.62
2023-04-21T06:11:06.633Z,13.68
2023-04-21T06:13:38.558Z,13.72
2023-04-21T06:16:11.423Z,13.78
2023-04-21T06:18:47.825Z,13.84
2023-04-21T06:21:17.224Z,13.90
2023-04-21T06:23:57.189Z,13.94
2023-04-21T06:26:27.664Z,14.05
2023-04-21T06:28:58.482Z,14.14
2023-04-21T06:31:28.252Z,14.17
2023-04-21T06:33:57.608Z,14.13
2023-04-21T06:36:28.450Z,14.11
2023-04-21T06:38:57.890Z,14.14
2023-04-21T06:41:28.443Z,14.17
2023-04-21T06:44:01.774Z,14.22
2023-04-21T06:46:34.361Z,14.25
2023-04-21T06:49:04.713Z,14.33
2023-04-21T06:51:34.527Z,14.39
2023-04-21T06:54:05.017Z,14.46
2023-04-21T06:56:37.496Z,14.55
2023-04-21T06:59:10.563Z,14.66
2023-04-21T07:01:42.860Z,14.80
2023-04-21T07:04:12.054Z,14.94
2023-04-21T07:06:43.050Z,15.04
2023-04-21T07:09:13.060Z,15.11
2023-04-21T07:11:42.513Z,15.15
2023-04-21T07:14:11.740Z,15.24
2023-04-21T07:16:41.576Z,15.33
2023-04-21T07:19:11.293Z,15.36
2023-04-21T07:21:42.551Z,15.39
2023-04-21T07:24:11.924Z,15.40
2023-04-21T07:26:42.405Z,15.42
2023-04-21T07:29:12.071Z,15.42
2023-04-21T07:31:43.154Z,15.47
2023-04-21T07:34:15.240Z,15.48
2023-04-21T07:36:44.593Z,15.52
2023-04-21T07:39:13.864Z,15.64
2023-04-21T07:41:47.452Z,15.70
2023-04-21T07:44:17.470Z,15.71
2023-04-21T07:46:46.816Z,15.76
2023-04-21T07:49:16.697Z,15.84
2023-04-21T07:51:46.278Z,15.97
2023-04-21T07:54:15.909Z,16.07
2023-04-21T07:56:45.508Z,16.15
2023-04-21T07:59:14.913Z,16.21
2023-04-21T08:01:44.227Z,16.26
2023-04-21T08:04:13.638Z,16.26
2023-04-21T08:06:45.811Z,16.24
2023-04-21T08:09:15.672Z,16.19
2023-04-21T08:11:47.995Z,16.14
2023-04-21T08:14:17.726Z,16.19
2023-04-21T08:16:51.499Z,16.19
2023-04-21T08:19:24.354Z,16.23
2023-04-21T08:21:58.844Z,16.23
2023-04-21T08:24:30.881Z,16.20
2023-04-21T08:27:02.410Z,16.21
2023-04-21T08:29:32.433Z,16.21
2023-04-21T08:32:02.108Z,16.20
2023-04-21T08:34:32.789Z,16.18
2023-04-21T08:37:04.768Z,16.14
2023-04-21T08:39:38.641Z,16.14
2023-04-21T08:42:15.394Z,16.05
2023-04-21T08:44:48.108Z,16.02
2023-04-21T08:47:25.705Z,15.88
2023-04-21T08:49:59.132Z,15.78
2023-04-21T08:52:28.497Z,15.80
2023-04-21T08:55:01.783Z,15.89
2023-04-21T08:57:31.109Z,15.95
2023-04-21T09:00:00.390Z,15.84
2023-04-21T09:03:01.473Z,15.79
2023-04-21T09:05:33.039Z,15.82
2023-04-21T09:08:16.351Z,15.91
2023-04-21T09:10:47.918Z,16.00
2023-04-21T09:13:22.667Z,16.08
2023-04-21T09:15:52.761Z,16.12
2023-04-21T09:18:24.502Z,16.06
2023-04-21T09:21:10.177Z,15.95
2023-04-21T09:23:52.858Z,15.92
2023-04-21T09:26:23.247Z,15.97
2023-04-21T09:28:54.068Z,15.98
2023-04-21T09:31:24.724Z,16.00
2023-04-21T09:33:59.657Z,16.04
2023-04-21T09:36:33.715Z,16.07
2023-04-21T09:41:46.844Z,16.16
2023-04-21T09:44:17.142Z,16.23
2023-04-21T09:46:50.542Z,16.35
2023-04-21T09:49:27.385Z,16.43
2023-04-21T09:52:17.646Z,16.41
2023-04-21T09:54:56.240Z,16.48
2023-04-21T09:57:30.505Z,16.54
2023-04-21T10:00:04.874Z,16.54
2023-04-21T10:02:37.383Z,16.52
2023-04-21T10:05:13.650Z,16.44
2023-04-21T10:07:49.988Z,16.40
2023-04-21T10:10:23.600Z,16.46
2023-04-21T10:12:53.666Z,16.41
2023-04-21T10:15:32.937Z,16.45
2023-04-21T10:18:20.570Z,16.51
2023-04-21T10:21:00.018Z,16.52
2023-04-21T10:23:38.497Z,16.52
2023-04-21T10:26:12.080Z,16.54
2023-04-21T10:28:46.933Z,16.63
2023-04-21T10:31:29.901Z,16.63
2023-04-21T10:34:25.355Z,16.67
2023-04-21T10:37:15.675Z,16.67
2023-04-21T10:39:54.893Z,16.67
2023-04-21T10:42:34.593Z,16.65
2023-04-21T10:45:16.499Z,16.66
2023-04-21T10:47:56.227Z,16.75
2023-04-21T10:50:30.799Z,16.78
2023-04-21T10:53:12.332Z,16.86
2023-04-21T10:55:49.150Z,16.89
2023-04-21T10:58:25.376Z,16.99
2023-04-21T11:00:59.288Z,17.10
2023-04-21T11:03:35.623Z,17.19
2023-04-21T11:06:18.069Z,17.29
2023-04-21T11:09:03.195Z,17.45
2023-04-21T11:11:32.639Z,17.57
2023-04-21T11:14:07.236Z,17.63
2023-04-21T11:16:37.750Z,17.61
2023-04-21T11:19:07.894Z,17.66
2023-04-21T11:21:37.449Z,17.67
2023-04-21T11:24:13.828Z,17.53
2023-04-21T11:26:44.653Z,17.43
2023-04-21T11:29:15.481Z,17.34
2023-04-21T11:32:00.654Z,17.29
2023-04-21T11:34:30.460Z,17.28
2023-04-21T11:40:01.691Z,17.47
2023-04-21T11:42:42.407Z,17.56
2023-04-21T11:45:22.808Z,17.62
2023-04-21T11:48:13.750Z,17.64
2023-04-21T11:50:48.521Z,17.74
2023-04-21T11:53:21.306Z,17.80
2023-04-21T11:55:51.243Z,17.76
2023-04-21T11:58:22.177Z,17.74
2023-04-21T12:00:53.041Z,17.74
2023-04-21T12:03:23.802Z,17.68
2023-04-21T12:06:00.646Z,17.67
2023-04-21T12:08:35.286Z,17.80
2023-04-21T12:11:07.786Z,17.98
2023-04-21T12:13:47.047Z,18.12
2023-04-21T12:16:16.841Z,18.31
2023-04-21T12:18:47.930Z,18.43
2023-04-21T12:21:17.721Z,18.58
2023-04-21T12:23:47.467Z,18.64
2023-04-21T12:26:16.983Z,18.68
2023-04-21T12:28:48.405Z,18.66
2023-04-21T12:31:20.979Z,18.52
2023-04-21T12:33:51.754Z,18.54
2023-04-21T12:36:21.745Z,18.56
2023-04-21T12:38:56.317Z,18.63
2023-04-21T12:41:25.899Z,18.73
2023-04-21T12:44:00.518Z,18.80
2023-04-21T12:46:32.878Z,18.68
2023-04-21T12:49:10.177Z,18.60
2023-04-21T12:51:41.624Z,18.57
2023-04-21T12:54:11.586Z,18.56
2023-04-21T12:56:42.351Z,18.60
2023-04-21T12:59:14.595Z,18.70
2023-04-21T13:01:45.326Z,18.72
2023-04-21T13:04:16.331Z,18.71
2023-04-21T13:06:48.177Z,18.73
2023-04-21T13:09:18.459Z,18.85
2023-04-21T13:11:48.638Z,19.09
2023-04-21T13:14:19.688Z,19.38
2023-04-21T13:16:49.308Z,19.51
2023-04-21T13:19:19.760Z,19.61
2023-04-21T13:21:52.055Z,19.67
2023-04-21T13:24:25.406Z,19.65
2023-04-21T13:26:54.561Z,19.72
2023-04-21T13:29:28.728Z,19.80
2023-04-21T13:31:58.229Z,19.86
2023-04-21T13:34:28.300Z,19.82
2023-04-21T13:36:57.769Z,19.81
2023-04-21T13:39:27.471Z,19.69
2023-04-21T13:41:57.539Z,19.38
2023-04-21T13:44:27.772Z,19.16
2023-04-21T13:46:57.496Z,19.04
2023-04-21T13:49:28.105Z,18.96
2023-04-21T13:51:57.375Z,18.92
2023-04-21T13:54:27.831Z,18.89
2023-04-21T13:56:58.120Z,18.77
2023-04-21T13:59:29.005Z,18.75
2023-04-21T14:01:58.470Z,18.72
2023-04-21T14:04:28.147Z,18.76
2023-04-21T14:06:57.811Z,18.82
2023-04-21T14:09:27.819Z,18.88
2023-04-21T14:11:57.175Z,18.83
2023-04-21T14:14:37.951Z,18.72
2023-04-21T14:17:09.317Z,18.54
2023-04-21T14:19:39.264Z,18.54
2023-04-21T14:22:11.631Z,18.54
2023-04-21T14:24:46.286Z,18.48
2023-04-21T14:27:15.905Z,18.33
2023-04-21T14:29:45.401Z,18.17
2023-04-21T14:32:15.741Z,18.08
2023-04-21T14:34:47.360Z,17.94
2023-04-21T14:37:17.843Z,17.83
2023-04-21T14:39:50.832Z,17.84
2023-04-21T14:42:23.241Z,17.85
2023-04-21T14:44:54.156Z,17.86
2023-04-21T14:47:32.828Z,17.82
2023-04-21T14:50:03.441Z,17.72
2023-04-21T14:52:34.690Z,17.57
2023-04-21T14:55:12.903Z,17.48
2023-04-21T14:57:44.078Z,17.41
2023-04-21T15:00:17.398Z,17.37
2023-04-21T15:02:48.413Z,17.37
2023-04-21T15:05:23.732Z,17.45
2023-04-21T15:07:58.130Z,17.50
2023-04-21T15:10:31.766Z,17.52
2023-04-21T15:13:04.521Z,17.55
2023-04-21T15:15:34.397Z,17.54
2023-04-21T15:18:05.519Z,17.51
2023-04-21T15:23:47.961Z,17.44
2023-04-21T15:29:55.728Z,17.38
2023-04-21T15:29:55.737Z,17.42
2023-04-21T15:32:26.004Z,17.31
2023-04-21T15:34:58.024Z,17.28
2023-04-21T15:37:27.897Z,17.24
2023-04-21T15:41:00.188Z,17.22
2023-04-21T15:44:17.921Z,17.17
2023-04-21T15:47:38.968Z,17.19
2023-04-21T15:50:52.130Z,17.21
2023-04-21T15:54:03.479Z,17.19
2023-04-21T15:57:02.103Z,17.15
2023-04-21T16:00:24.223Z,17.13
2023-04-21T16:04:39.785Z,17.08
2023-04-21T16:10:31.187Z,16.99
2023-04-21T16:13:57.566Z,16.94
2023-04-21T16:16:54.061Z,16.90
2023-04-21T16:20:03.400Z,16.87
2023-04-21T16:23:03.884Z,16.86
2023-04-21T16:36:05.047Z,16.85
2023-04-21T16:37:55.979Z,16.79
2023-04-21T16:40:36.758Z,16.78
2023-04-21T16:55:04.035Z,16.59
2023-04-21T16:57:51.989Z,16.56
2023-04-21T17:00:22.775Z,16.53
2023-04-21T17:02:53.313Z,16.51
2023-04-21T17:05:28.682Z,16.49
2023-04-21T17:21:59.532Z,16.35
2023-04-21T17:22:13.771Z,16.45
2023-04-21T17:24:33.151Z,16.35
2023-04-21T17:27:14.426Z,16.35
2023-04-21T17:29:43.799Z,16.31
2023-04-21T17:32:19.069Z,16.28
2023-04-21T17:34:51.392Z,16.27
2023-04-21T17:37:22.324Z,16.28
2023-04-21T17:39:54.082Z,16.30
2023-04-21T17:42:33.160Z,16.31
2023-04-21T17:45:16.233Z,16.31
2023-04-21T17:47:46.255Z,16.32
2023-04-21T17:50:20.318Z,16.32
2023-04-21T17:52:51.908Z,16.32
2023-04-21T17:55:26.528Z,16.33
2023-04-21T17:57:57.916Z,16.32
2023-04-21T18:00:28.959Z,16.29
2023-04-21T18:02:58.143Z,16.26
2023-04-21T18:05:30.192Z,16.23
2023-04-21T18:13:44.539Z,16.13
2023-04-21T18:26:38.015Z,15.97
2023-04-21T18:27:57.946Z,15.94
2023-04-21T18:28:28.601Z,16.20
2023-04-21T18:30:28.788Z,15.91
2023-04-21T18:33:01.307Z,15.86
2023-04-21T18:35:34.315Z,15.83
2023-04-21T18:38:07.323Z,15.81
2023-04-21T18:40:37.669Z,15.81
2023-04-21T18:43:07.268Z,15.81
2023-04-21T18:54:09.253Z,15.65
2023-04-21T18:56:32.806Z,15.79
2023-04-21T18:56:47.601Z,15.62
2023-04-21T18:59:17.353Z,15.56
2023-04-21T19:00:40.171Z,15.69
2023-04-21T19:01:54.115Z,15.49
2023-04-21T19:04:26.962Z,15.44
2023-04-21T19:07:01.343Z,15.41
2023-04-21T19:10:00.482Z,15.36
2023-04-21T19:12:30.079Z,15.19
2023-04-21T19:15:08.102Z,15.02
2023-04-21T19:17:56.092Z,14.92
2023-04-21T19:20:25.334Z,14.91
2023-04-21T19:22:54.907Z,14.88
2023-04-21T19:25:25.148Z,14.78
2023-04-21T19:28:03.451Z,14.74
2023-04-21T19:30:33.338Z,14.76
2023-04-21T19:33:04.785Z,14.76
2023-04-21T19:35:34.836Z,14.76
2023-04-21T19:38:04.629Z,14.76
2023-04-21T19:40:36.414Z,14.75
2023-04-21T19:43:08.577Z,14.74
2023-04-21T19:45:38.238Z,14.72
2023-04-21T19:48:08.298Z,14.65
2023-04-21T19:50:40.934Z,14.60
2023-04-21T19:53:14.150Z,14.57
2023-04-21T19:55:48.128Z,14.58
2023-04-21T19:58:38.984Z,14.57
2023-04-21T20:01:10.493Z,14.54
2023-04-21T20:03:41.836Z,14.53
2023-04-21T20:06:12.627Z,14.51
2023-04-21T20:08:42.427Z,14.50
2023-04-21T20:11:12.098Z,14.48
2023-04-21T20:13:41.382Z,14.43
2023-04-21T20:16:11.297Z,14.41
2023-04-21T20:18:41.521Z,14.39
2023-04-21T20:21:11.366Z,14.33
2023-04-21T20:23:40.792Z,14.26
2023-04-21T20:26:10.275Z,14.20
2023-04-21T20:28:44.790Z,14.14
2023-04-21T20:31:18.737Z,14.09
2023-04-21T20:33:48.672Z,14.05
2023-04-21T20:36:24.620Z,13.99
2023-04-21T20:39:02.183Z,13.94
2023-04-21T20:42:13.105Z,13.91
2023-04-21T20:44:43.380Z,13.89
2023-04-21T20:47:16.985Z,13.86
2023-04-21T20:49:47.157Z,13.85
2023-04-21T20:52:18.006Z,13.83
2023-04-21T20:54:47.375Z,13.82
2023-04-21T20:57:17.352Z,13.82
2023-04-21T20:59:57.648Z,13.81
2023-04-21T21:02:31.351Z,13.78
2023-04-21T21:05:04.340Z,13.75
2023-04-21T21:07:34.249Z,13.71
2023-04-21T21:10:10.862Z,13.68
2023-04-21T21:12:42.183Z,13.64
2023-04-21T21:15:13.562Z,13.60
2023-04-21T21:17:43.078Z,13.57
2023-04-21T21:20:12.981Z,13.53
2023-04-21T21:23:33.153Z,13.51
2023-04-21T21:26:02.797Z,13.43
2023-04-21T21:32:32.138Z,13.38
2023-04-21T21:35:11.373Z,13.34
2023-04-21T21:37:41.298Z,13.31
2023-04-21T21:40:14.177Z,13.29
2023-04-21T21:42:43.854Z,13.28
2023-04-21T21:45:21.534Z,13.23
2023-04-21T21:52:08.432Z,13.09
2023-04-21T21:53:17.465Z,13.16
2023-04-21T21:54:41.089Z,13.09
2023-04-21T21:57:21.085Z,13.10
2023-04-21T22:00:04.557Z,13.10
2023-04-21T22:02:36.806Z,13.08
2023-04-21T22:05:07.534Z,13.08
2023-04-21T22:07:40.342Z,13.09
2023-04-21T22:10:14.423Z,13.08
2023-04-21T22:12:45.413Z,13.08
2023-04-21T22:15:16.354Z,13.07
2023-04-21T22:17:48.565Z,13.06
2023-04-21T22:20:36.720Z,13.03
2023-04-21T22:23:11.841Z,13.00
2023-04-21T22:25:41.888Z,13.00
2023-04-21T22:28:11.583Z,12.99
2023-04-21T22:30:41.473Z,12.95
2023-04-21T22:33:13.811Z,12.94
2023-04-21T22:35:43.927Z,12.95
2023-04-21T22:38:16.980Z,12.95
2023-04-21T22:40:48.129Z,12.94
2023-04-21T22:43:18.585Z,12.96
2023-04-21T22:45:50.187Z,12.95
2023-04-21T22:48:25.683Z,12.95
2023-04-21T22:50:58.613Z,12.96
2023-04-21T22:53:34.336Z,12.95
2023-04-21T22:56:08.029Z,12.93
2023-04-21T22:58:37.587Z,12.91
2023-04-21T23:01:13.291Z,12.89
2023-04-21T23:03:43.392Z,12.89
2023-04-21T23:20:57.697Z,12.78
2023-04-21T23:23:27.206Z,12.80
2023-04-21T23:25:56.808Z,12.81
2023-04-21T23:28:27.185Z,12.82
2023-04-21T23:30:56.676Z,12.86
2023-04-21T23:33:29.869Z,12.89
2023-04-21T23:36:03.279Z,12.91
2023-04-21T23:38:33.914Z,12.93
2023-04-21T23:41:06.278Z,12.94
2023-04-21T23:43:42.545Z,12.95
2023-04-21T23:46:12.846Z,12.91
2023-04-21T23:48:42.853Z,12.87
2023-04-21T23:51:18.788Z,12.87
2023-04-21T23:53:49.761Z,12.89
2023-04-21T23:56:24.060Z,12.90
2023-04-21T23:58:54.787Z,12.90
